Vremea acum in Ovidiu - Romania

Vrei sa afli care e starea vremii acum in Constanta - Romania? Dorim sa iti furnizam starea vremii pentru Constanta - Romania. Starea vremii Constanta - Romania pentru astazi.

Vremea acum in Ovidiu

Temperatura: 12.1 °C

Este: Partial innorat
Se simte ca: 10.6 °C
Innorat: 75 %
Precipitatii: 0 %
Presiune atmosferica: 1018 hPa
Umiditate: 94%
Vizibilitate: 10 km
Vantul bate din SSE cu 14.4 km/h

Evolutia vremii in Ovidiu pe ore

Ora: 12:00
Senin
Temperatura: 14.9°C
Sansa de precipitatii: 0%
Ora Descriere Temp Se simte Precipitatii Umiditate Vant
00:00Senin10.3°8.4°0%89%S 14 KM/H
01:00Senin10.1°8.2°0%90%S 14 KM/H
02:00Senin10°0%90%S 14 KM/H
03:00Senin10°0%91%S 14.4 KM/H
04:00Senin10°0%91%S 14 KM/H
05:00Senin10°0%91%SSE 14 KM/H
06:00Senin10°8.1°0%90%SSE 13.7 KM/H
07:00Senin10.6°0%90%SSE 13 KM/H
08:00Partial innorat12.1°10.7°0%94%SSE 14.4 KM/H
09:00Senin13.3°11.9°0%77%SSE 16.6 KM/H
10:00Senin14.1°12.6°0%74%SE 19.1 KM/H
11:00Senin14.6°13.2°0%71%SSE 19.4 KM/H
12:00Senin14.9°13.6°0%69%SE 20.2 KM/H
13:00Senin15°15°0%69%SE 21.6 KM/H
14:00Senin15.2°15.2°0%68%SSE 21.6 KM/H
15:0015.1°15.1°0%69%SE 21.6 KM/H
16:00Senin14.9°13.4°0%71%SE 21.2 KM/H
17:00Senin14.7°13.2°0%72%SSE 20.2 KM/H
18:00Senin14.2°12.7°0%74%SSE 20.2 KM/H
19:00Senin13.5°11.8°0%79%SSE 18.7 KM/H
20:00Senin12.3°10.5°0%85%SE 17.3 KM/H
21:00Senin11.6°9.7°0%88%SSE 16.6 KM/H
22:00Senin11.6°9.7°0%87%SSE 16.6 KM/H
23:00Senin11.5°9.8°0%87%SSE 14.8 KM/H




tutorials